Latest Weather Observations for Eildon Fire Tower

IDV60801

Issued at 4:32 am EST Thursday 30 June 2022 (issued every 10 minutes, with the page automatically refreshed every 10 minutes)

About weather observations | Map of weather stations | Latest weather observations for VIC | Other Formats
Station Details ID: 088164 Name: EILDON FIRE TOWER Lat: -37.21 Lon: 145.84 Height: 637.0 m
Data from the previous 72 hours. | See also: Recent months at Eildon Fire Tower
Date/Time
EST
Temp
°C
App
Temp
°C
Dew
Point
°C
Rel
Hum
%
Delta-T
°C
Wind Press
QNH
hPa
Press
MSL
hPa
Rain since
9am
mm
Dir  Spd
km/h
Gust
km/h
Spd
kts
Gust
kts
30/04:30am 5.9 4.2 3.9 87 0.9 NNE 2 4 1 2 - - 0.2
30/04:00am 5.9 3.8 3.9 87 0.9 NNE 4 6 2 3 - - 0.2
30/03:30am 5.8 3.1 3.8 87 0.9 NE 7 9 4 5 - - 0.2
30/03:00am 6.0 3.0 4.0 87 0.9 NE 9 17 5 9 - - 0.2
30/02:30am 5.7 2.0 4.2 90 0.7 ENE 13 15 7 8 - - 0.2
30/02:00am 5.6 2.5 3.6 87 0.9 NE 9 13 5 7 - - 0.2
30/01:30am 5.7 2.6 3.5 86 1.0 NE 9 13 5 7 - - 0.2
30/01:00am 6.0 2.9 3.5 84 1.1 NNE 9 11 5 6 - - 0.2
30/12:30am 6.1 3.0 3.4 83 1.2 NE 9 13 5 7 - - 0.2
30/12:00am 5.6 1.6 2.8 82 1.2 NE 13 15 7 8 - - 0.2
 
Date/Time
EST
Temp
°C
App
Temp
°C
Dew
Point
°C
Rel
Hum
%
Delta-T
°C
Wind Press
QNH
hPa
Press
MSL
hPa
Rain since
9am
mm
Dir  Spd
km/h
Gust
km/h
Spd
kts
Gust
kts
29/11:30pm 5.6 2.7 2.8 82 1.2 NE 7 11 4 6 - - 0.2
29/11:00pm 5.8 2.6 2.8 81 1.3 NE 9 15 5 8 - - 0.2
29/10:30pm 5.8 2.5 2.4 79 1.4 NE 9 11 5 6 - - 0.2
29/10:00pm 5.8 2.5 2.4 79 1.4 NE 9 13 5 7 - - 0.2
29/09:30pm 5.8 1.8 3.0 82 1.2 NE 13 17 7 9 - - 0.2
29/09:00pm 5.8 2.2 2.8 81 1.3 NE 11 17 6 9 - - 0.2
29/08:30pm 5.6 2.0 2.9 83 1.2 NNE 11 15 6 8 - - 0.2
29/08:00pm 5.8 1.4 2.6 80 1.4 NE 15 17 8 9 - - 0.2
29/07:30pm 5.8 1.8 3.0 82 1.2 NE 13 17 7 9 - - 0.2
29/07:00pm 5.9 1.9 3.1 82 1.2 NE 13 19 7 10 - - 0.2
29/06:30pm 5.9 0.8 3.2 83 1.2 NE 19 24 10 13 - - 0.2
29/06:00pm 5.8 1.4 2.8 81 1.3 NE 15 19 8 10 - - 0.2
29/05:30pm 5.8 1.8 2.6 80 1.4 NE 13 15 7 8 - - 0.2
29/05:00pm 5.9 2.3 2.7 80 1.4 NE 11 17 6 9 - - 0.2
29/04:30pm 6.0 2.0 2.6 79 1.5 NE 13 19 7 10 - - 0.2
29/04:00pm 6.2 2.6 2.8 79 1.5 NE 11 17 6 9 - - 0.2
29/03:30pm 6.4 2.4 2.9 78 1.5 NE 13 26 7 14 - - 0.2
29/03:00pm 6.4 2.1 3.2 80 1.4 NE 15 24 8 13 - - 0.2
29/02:30pm 6.4 2.9 3.6 82 1.2 NE 11 19 6 10 - - 0.2
29/02:00pm 6.3 2.8 3.5 82 1.2 NE 11 17 6 9 - - 0.2
29/01:30pm 6.3 2.8 3.6 83 1.2 NE 11 20 6 11 - - 0.2
29/01:00pm 6.3 3.7 3.3 81 1.3 N 6 9 3 5 - - 0.2
29/12:30pm 6.3 3.6 2.8 78 1.5 NNE 6 9 3 5 - - 0.2
29/12:00pm 6.4 3.8 4.1 85 1.0 NE 7 11 4 6 - - 0.0
29/11:30am 5.8 2.7 3.5 85 1.0 NNE 9 17 5 9 - - 0.0
29/11:00am 5.5 0.7 2.7 82 1.2 NE 17 22 9 12 - - 0.0
29/10:30am 6.4 3.1 4.4 87 0.9 NNE 11 17 6 9 - - 0.0
29/10:00am 4.4 -0.9 3.1 91 0.6 ENE 20 24 11 13 - - 0.0
29/09:30am 3.4 -0.9 3.1 98 0.1 ENE 15 20 8 11 - - 0.0
29/09:00am 3.4 -1.7 3.1 98 0.1 NE 19 22 10 12 - - 0.0
29/08:30am 3.8 -1.3 2.9 94 0.4 ENE 19 24 10 13 - - 0.0
29/08:00am 3.3 -2.0 3.0 98 0.1 ENE 20 24 11 13 - - 0.0
29/07:30am 2.9 -3.6 2.5 97 0.2 NE 26 28 14 15 - - 0.0
29/07:00am 3.4 -1.7 2.8 96 0.3 NE 19 22 10 12 - - 0.0
29/06:30am 3.5 -1.3 2.8 95 0.3 NE 17 22 9 12 - - 0.0
29/06:00am 3.4 -1.7 2.8 96 0.3 NE 19 20 10 11 - - 0.0
29/05:30am 3.2 -1.5 3.1 99 0.0 NE 17 19 9 10 - - 0.0
29/05:00am 3.0 -1.7 2.9 99 0.0 NE 17 20 9 11 - - 0.0
29/04:30am 2.8 -2.0 2.7 99 0.0 NE 17 20 9 11 - - 0.0
29/04:00am 2.5 -2.3 2.4 99 0.0 NE 17 22 9 12 - - 0.0
29/03:30am 2.4 -2.8 2.3 99 0.0 ENE 19 22 10 12 - - 0.0
29/03:00am 2.5 -2.0 2.4 99 0.0 NE 15 19 8 10 - - 0.0
29/02:30am 2.5 -1.2 2.2 98 0.1 ENE 11 15 6 8 - - 0.0
29/02:00am 2.8 -0.1 2.5 98 0.1 NE 7 13 4 7 - - 0.0
29/01:30am 3.2 -0.4 2.9 98 0.1 NE 11 15 6 8 - - 0.0
29/01:00am 3.8 0.2 2.8 93 0.4 NE 11 11 6 6 - - 0.0
29/12:30am 3.9 0.7 2.9 93 0.4 NNE 9 11 5 6 - - 0.0
29/12:00am 4.0 1.3 2.8 92 0.5 NNE 6 7 3 4 - - 0.0
 
Date/Time
EST
Temp
°C
App
Temp
°C
Dew
Point
°C
Rel
Hum
%
Delta-T
°C
Wind Press
QNH
hPa
Press
MSL
hPa
Rain since
9am
mm
Dir  Spd
km/h
Gust
km/h
Spd
kts
Gust
kts
28/11:30pm 4.5 1.8 2.7 88 0.8 NNW 6 6 3 3 - - 0.0
28/11:00pm 4.6 2.3 2.8 88 0.8 NNW 4 6 2 3 - - 0.0
28/10:30pm 4.8 1.9 2.8 87 0.8 N 7 9 4 5 - - 0.0
28/10:00pm 4.9 1.7 3.1 88 0.8 N 9 13 5 7 - - 0.0
28/09:30pm 4.9 2.2 2.9 87 0.9 N 6 9 3 5 - - 0.0
28/09:00pm 4.9 1.0 3.4 90 0.6 WNW 13 13 7 7 - - 0.0
28/08:30pm 5.2 2.0 3.2 87 0.9 WNW 9 13 5 7 - - 0.0
28/08:00pm 5.1 2.3 3.3 88 0.8 N 7 9 4 5 - - 0.0
28/07:30pm 5.5 2.0 3.3 86 1.0 N 11 13 6 7 - - 0.0
28/07:00pm 5.0 2.3 3.7 91 0.6 NNE 7 9 4 5 - - 0.0
28/06:30pm 5.2 1.3 3.5 89 0.7 NE 13 17 7 9 - - 0.0
28/06:00pm 5.3 1.0 3.5 88 0.8 ENE 15 19 8 10 - - 0.0
28/05:30pm 5.8 0.2 3.5 85 1.0 ENE 22 26 12 14 - - 0.0
28/05:00pm 5.7 0.5 3.7 87 0.9 ENE 20 24 11 13 - - 0.0
28/04:30pm 6.0 1.0 3.7 85 1.0 ENE 19 22 10 12 - - 0.0
28/04:00pm 5.8 2.5 4.8 93 0.5 NNW 11 13 6 7 - - 0.0
28/03:30pm 6.5 4.0 4.8 89 0.8 WNW 7 9 4 5 - - 0.0
28/03:00pm 6.7 4.4 4.7 87 0.9 WNW 6 7 3 4 - - 0.0
28/02:30pm 7.5 5.7 5.3 86 1.0 WNW 4 6 2 3 - - 0.0
28/02:00pm 6.5 4.0 3.8 83 1.2 NW 6 7 3 4 - - 0.0
28/01:30pm 6.7 4.2 4.5 86 1.0 W 7 9 4 5 - - 0.0
28/01:00pm 5.9 3.4 4.9 93 0.5 W 7 11 4 6 - - 0.0
28/12:30pm 6.4 3.8 4.2 86 1.0 NE 7 13 4 7 - - 0.0
28/12:00pm 4.8 2.1 3.8 93 0.4 NNE 7 11 4 6 - - 0.0
28/11:30am 4.3 1.8 3.9 97 0.2 ENE 6 9 3 5 - - 0.0
28/11:00am 4.3 1.3 4.0 98 0.1 NE 9 11 5 6 - - 0.0
28/10:30am 3.8 0.7 3.7 99 0.0 NE 9 11 5 6 - - 0.0
28/10:00am 3.0 -0.6 2.9 99 0.0 ENE 11 15 6 8 - - 0.0
28/09:30am 3.1 0.5 3.0 99 0.0 NNE 6 7 3 4 - - 0.0
28/09:00am 1.9 -1.1 1.8 99 0.0 NNE 7 9 4 5 - - 0.2
28/08:30am 1.8 -1.6 1.7 99 0.0 NE 9 11 5 6 - - 0.0
28/08:00am 1.7 -1.4 1.6 99 0.0 NE 7 11 4 6 - - 0.0
28/07:30am 1.6 -1.5 1.3 98 0.1 NNE 7 9 4 5 - - 0.0
28/07:00am 1.3 -1.9 1.0 98 0.1 NE 7 9 4 5 - - 0.0
28/06:30am 2.0 -1.2 0.7 91 0.5 E 7 9 4 5 - - 0.0
28/06:00am 2.4 -0.2 0.9 90 0.6 NE 4 6 2 3 - - 0.0
28/05:30am 1.6 -1.3 1.2 97 0.2 NNE 6 6 3 3 - - 0.0
28/05:00am 2.3 -0.7 1.1 92 0.5 NE 6 6 3 3 - - 0.0
28/04:30am 2.3 -0.7 0.8 90 0.6 NE 6 7 3 4 - - 0.0
28/04:00am 2.4 -0.1 1.4 93 0.4 NE 4 6 2 3 - - 0.0
28/03:30am 2.5 0.1 2.1 97 0.2 NE 4 6 2 3 - - 0.0
28/03:00am 2.3 -0.6 1.7 96 0.2 ESE 6 9 3 5 - - 0.0
28/02:30am 2.9 1.1 1.1 88 0.7 CALM 0 2 0 1 - - 0.0
28/02:00am 3.2 0.7 1.7 90 0.6 SE 4 4 2 2 - - 0.0
28/01:30am 3.4 0.5 1.6 88 0.7 SE 6 6 3 3 - - 0.0
28/01:00am 3.2 0.8 1.9 91 0.5 S 4 6 2 3 - - 0.0
28/12:30am 3.6 0.8 2.1 90 0.6 SSW 6 6 3 3 - - 0.0
28/12:00am 3.9 1.5 2.3 89 0.7 SSW 4 6 2 3 - - 0.0
 
Date/Time
EST
Temp
°C
App
Temp
°C
Dew
Point
°C
Rel
Hum
%
Delta-T
°C
Wind Press
QNH
hPa
Press
MSL
hPa
Rain since
9am
mm
Dir  Spd
km/h
Gust
km/h
Spd
kts
Gust
kts
27/11:30pm 3.6 1.4 1.3 85 0.9 SSW 2 2 1 1 - - 0.0
27/11:00pm 3.9 0.8 1.3 83 1.1 SSW 7 11 4 6 - - 0.0
27/10:30pm 3.7 -0.1 1.6 86 0.9 ESE 11 13 6 7 - - 0.0
27/10:00pm 4.0 0.2 1.9 86 0.9 SE 11 17 6 9 - - 0.0
27/09:30pm 4.2 -0.3 1.9 85 0.9 ESE 15 22 8 12 - - 0.0
27/09:00pm 4.2 -0.3 2.2 87 0.8 E 15 20 8 11 - - 0.0
27/08:30pm 4.1 -0.3 2.6 90 0.6 ESE 15 22 8 12 - - 0.0
27/08:00pm 4.4 2.2 3.1 91 0.6 S 4 9 2 5 - - 0.0
27/07:30pm 4.5 1.8 3.5 93 0.4 SW 7 11 4 6 - - 0.0
27/07:00pm 4.7 0.8 3.4 91 0.6 SSW 13 15 7 8 - - 0.0
27/06:30pm 4.9 1.8 3.6 91 0.6 SW 9 13 5 7 - - 0.0
27/06:00pm 4.9 1.8 3.6 91 0.6 SW 9 13 5 7 - - 0.0
27/05:30pm 5.1 1.6 3.4 89 0.7 SW 11 15 6 8 - - 0.0
27/05:00pm 5.3 0.7 3.6 89 0.7 SW 17 24 9 13 - - 0.0
27/04:30pm 5.9 0.7 3.7 86 1.0 WSW 20 28 11 15 - - 0.0
27/04:00pm 6.3 1.5 4.5 88 0.8 SW 19 26 10 14 - - 0.0
27/03:30pm 6.6 1.7 4.3 85 1.0 WSW 19 30 10 16 - - 0.0
27/03:00pm 6.8 1.3 3.9 82 1.3 WSW 22 30 12 16 - - 0.0
27/02:30pm 6.9 0.6 4.0 82 1.3 WSW 26 35 14 19 - - 0.0
27/02:00pm 7.6 2.8 4.6 81 1.4 WSW 19 28 10 15 - - 0.0
27/01:30pm 7.1 2.6 4.4 83 1.2 SW 17 22 9 12 - - 0.0
27/01:00pm 7.2 2.7 4.2 81 1.3 WSW 17 24 9 13 - - 0.0
27/12:30pm 6.9 3.9 4.2 83 1.2 WSW 9 15 5 8 - - 0.0
27/12:00pm 6.9 3.7 4.9 87 0.9 W 11 17 6 9 - - 0.0
27/11:30am 6.2 3.3 4.5 89 0.8 W 9 13 5 7 - - 0.0
27/11:00am 6.0 3.1 4.5 90 0.7 W 9 13 5 7 - - 0.0
27/10:30am 5.2 1.7 3.7 90 0.7 WSW 11 17 6 9 - - 0.0
27/10:00am 4.7 1.9 3.4 91 0.6 S 7 9 4 5 - - 0.0
27/09:30am 6.4 4.7 4.1 85 1.0 S 2 6 1 3 - - 0.0
27/09:00am 6.0 3.8 3.2 82 1.2 S 4 7 2 4 - - 1.8
27/08:30am 4.0 -0.1 2.4 89 0.7 SSW 13 15 7 8 - - 1.8
27/08:00am 4.3 -1.1 1.2 80 1.3 S 19 24 10 13 - - 1.8
27/07:30am 3.6 -1.7 2.0 89 0.7 SSW 19 24 10 13 - - 1.8
27/07:00am 3.3 -1.6 2.1 92 0.5 SW 17 22 9 12 - - 1.8
27/06:30am 3.3 -0.8 2.4 94 0.4 SW 13 19 7 10 - - 1.8
27/06:00am 3.1 -1.0 2.5 96 0.2 SW 13 17 7 9 - - 1.8
27/05:30am 3.5 -1.8 3.2 98 0.1 WSW 20 30 11 16 - - 1.6
27/05:00am 3.4 -0.6 3.1 98 0.1 SW 13 17 7 9 - - 1.6

Other formats

Comma delimited format used in spreadsheet applications
http://www.bom.gov.au/fwo/IDV60801/IDV60801.94881.axf

JavaScript Object Notation format (JSON) in row-major order
http://www.bom.gov.au/fwo/IDV60801/IDV60801.94881.json

Data quality

Most of these data are generated automatically and are frequently updated. Quality checks on data are not normally performed. It is possible for incorrect values to appear. Refer to information at About Latest Weather Observations and please check the disclaimer before using these data.